sensor_id;sensor_type;location;lat;lon;timestamp;temperature;humidity
42615;DHT22;28754;47.700;7.924;2023-11-19T00:01:08;8.50;99.90
42615;DHT22;28754;47.700;7.924;2023-11-19T00:03:54;8.50;99.90
42615;DHT22;28754;47.700;7.924;2023-11-19T00:06:41;8.50;99.90
42615;DHT22;28754;47.700;7.924;2023-11-19T00:09:27;8.50;99.90
42615;DHT22;28754;47.700;7.924;2023-11-19T00:12:14;8.50;99.90
42615;DHT22;28754;47.700;7.924;2023-11-19T00:15:01;8.50;99.90
42615;DHT22;28754;47.700;7.924;2023-11-19T00:17:48;8.50;99.90
42615;DHT22;28754;47.700;7.924;2023-11-19T00:20:35;8.60;99.90
42615;DHT22;28754;47.700;7.924;2023-11-19T00:23:21;8.60;99.90
42615;DHT22;28754;47.700;7.924;2023-11-19T00:26:09;8.60;99.90
42615;DHT22;28754;47.700;7.924;2023-11-19T00:28:57;8.70;99.90
42615;DHT22;28754;47.700;7.924;2023-11-19T00:31:45;8.70;99.90
42615;DHT22;28754;47.700;7.924;2023-11-19T00:34:32;8.70;99.90
42615;DHT22;28754;47.700;7.924;2023-11-19T00:37:18;8.70;99.90
42615;DHT22;28754;47.700;7.924;2023-11-19T00:40:05;8.70;99.90
42615;DHT22;28754;47.700;7.924;2023-11-19T00:42:53;8.70;99.90
42615;DHT22;28754;47.700;7.924;2023-11-19T00:45:40;8.70;99.90
42615;DHT22;28754;47.700;7.924;2023-11-19T00:48:27;8.70;99.90
42615;DHT22;28754;47.700;7.924;2023-11-19T00:51:14;8.70;99.90
42615;DHT22;28754;47.700;7.924;2023-11-19T00:54:01;8.70;99.90
42615;DHT22;28754;47.700;7.924;2023-11-19T00:56:48;8.70;99.90
42615;DHT22;28754;47.700;7.924;2023-11-19T00:59:34;8.80;99.90
42615;DHT22;28754;47.700;7.924;2023-11-19T01:02:21;8.70;99.90
42615;DHT22;28754;47.700;7.924;2023-11-19T01:05:08;8.70;99.90
42615;DHT22;28754;47.700;7.924;2023-11-19T01:07:56;8.80;99.90
42615;DHT22;28754;47.700;7.924;2023-11-19T01:10:43;8.80;99.90
42615;DHT22;28754;47.700;7.924;2023-11-19T01:13:30;8.80;99.90
42615;DHT22;28754;47.700;7.924;2023-11-19T01:16:17;8.70;99.90
42615;DHT22;28754;47.700;7.924;2023-11-19T01:19:05;8.90;99.90
42615;DHT22;28754;47.700;7.924;2023-11-19T01:21:51;8.90;99.90
42615;DHT22;28754;47.700;7.924;2023-11-19T01:24:38;8.90;99.90
42615;DHT22;28754;47.700;7.924;2023-11-19T01:27:25;8.90;99.90
42615;DHT22;28754;47.700;7.924;2023-11-19T01:30:12;8.90;99.90
42615;DHT22;28754;47.700;7.924;2023-11-19T01:32:59;8.90;99.90
42615;DHT22;28754;47.700;7.924;2023-11-19T01:35:46;8.90;99.90
42615;DHT22;28754;47.700;7.924;2023-11-19T01:38:33;9.00;99.90
42615;DHT22;28754;47.700;7.924;2023-11-19T01:41:20;9.10;99.90
42615;DHT22;28754;47.700;7.924;2023-11-19T01:44:07;9.10;99.90
42615;DHT22;28754;47.700;7.924;2023-11-19T01:46:54;9.00;99.90
42615;DHT22;28754;47.700;7.924;2023-11-19T01:49:40;9.10;99.90
42615;DHT22;28754;47.700;7.924;2023-11-19T01:52:27;9.10;99.90
42615;DHT22;28754;47.700;7.924;2023-11-19T01:55:15;9.10;99.90
42615;DHT22;28754;47.700;7.924;2023-11-19T01:58:02;9.10;99.90
42615;DHT22;28754;47.700;7.924;2023-11-19T02:00:49;9.10;99.90
42615;DHT22;28754;47.700;7.924;2023-11-19T02:03:35;9.20;99.90
42615;DHT22;28754;47.700;7.924;2023-11-19T02:06:23;9.20;99.90
42615;DHT22;28754;47.700;7.924;2023-11-19T02:09:10;9.20;99.90
42615;DHT22;28754;47.700;7.924;2023-11-19T02:11:57;9.20;99.90
42615;DHT22;28754;47.700;7.924;2023-11-19T02:14:44;9.30;99.90
42615;DHT22;28754;47.700;7.924;2023-11-19T02:17:31;9.30;99.90
42615;DHT22;28754;47.700;7.924;2023-11-19T02:20:18;9.20;99.90
42615;DHT22;28754;47.700;7.924;2023-11-19T02:23:06;9.20;99.90
42615;DHT22;28754;47.700;7.924;2023-11-19T02:26:03;9.30;99.90
42615;DHT22;28754;47.700;7.924;2023-11-19T02:29:00;9.30;99.90
42615;DHT22;28754;47.700;7.924;2023-11-19T02:31:47;9.30;99.90
42615;DHT22;28754;47.700;7.924;2023-11-19T02:34:33;9.20;99.90
42615;DHT22;28754;47.700;7.924;2023-11-19T02:37:20;9.30;99.90
42615;DHT22;28754;47.700;7.924;2023-11-19T02:40:07;9.30;99.90
42615;DHT22;28754;47.700;7.924;2023-11-19T02:42:55;9.30;99.90
42615;DHT22;28754;47.700;7.924;2023-11-19T02:45:42;9.40;99.90
42615;DHT22;28754;47.700;7.924;2023-11-19T02:48:32;9.30;99.90
42615;DHT22;28754;47.700;7.924;2023-11-19T02:51:19;9.30;99.90
42615;DHT22;28754;47.700;7.924;2023-11-19T02:54:05;9.40;99.90
42615;DHT22;28754;47.700;7.924;2023-11-19T02:56:52;9.30;99.90
42615;DHT22;28754;47.700;7.924;2023-11-19T02:59:45;9.40;99.90
42615;DHT22;28754;47.700;7.924;2023-11-19T03:02:34;9.30;99.90
42615;DHT22;28754;47.700;7.924;2023-11-19T03:05:30;9.30;99.90
42615;DHT22;28754;47.700;7.924;2023-11-19T03:08:19;9.40;99.90
42615;DHT22;28754;47.700;7.924;2023-11-19T03:11:06;9.40;99.90
42615;DHT22;28754;47.700;7.924;2023-11-19T03:13:55;9.30;99.90
42615;DHT22;28754;47.700;7.924;2023-11-19T03:16:45;9.40;99.90
42615;DHT22;28754;47.700;7.924;2023-11-19T03:19:37;9.40;99.90
42615;DHT22;28754;47.700;7.924;2023-11-19T03:22:24;9.30;99.90
42615;DHT22;28754;47.700;7.924;2023-11-19T03:25:11;9.40;99.90
42615;DHT22;28754;47.700;7.924;2023-11-19T03:27:58;9.30;99.90
42615;DHT22;28754;47.700;7.924;2023-11-19T03:30:45;9.30;99.90
42615;DHT22;28754;47.700;7.924;2023-11-19T03:33:32;9.60;99.90
42615;DHT22;28754;47.700;7.924;2023-11-19T03:36:19;9.40;99.90
42615;DHT22;28754;47.700;7.924;2023-11-19T03:39:08;9.60;99.90
42615;DHT22;28754;47.700;7.924;2023-11-19T03:41:55;9.50;99.90
42615;DHT22;28754;47.700;7.924;2023-11-19T03:44:42;9.60;99.90
42615;DHT22;28754;47.700;7.924;2023-11-19T03:47:28;9.60;99.90
42615;DHT22;28754;47.700;7.924;2023-11-19T03:50:15;9.50;99.90
42615;DHT22;28754;47.700;7.924;2023-11-19T03:53:02;9.50;99.90
42615;DHT22;28754;47.700;7.924;2023-11-19T03:55:49;9.60;99.90
42615;DHT22;28754;47.700;7.924;2023-11-19T03:58:36;9.60;99.90
42615;DHT22;28754;47.700;7.924;2023-11-19T04:01:24;9.50;99.90
42615;DHT22;28754;47.700;7.924;2023-11-19T04:04:11;9.70;99.90
42615;DHT22;28754;47.700;7.924;2023-11-19T04:06:58;9.60;99.90
42615;DHT22;28754;47.700;7.924;2023-11-19T04:09:47;9.50;99.90
42615;DHT22;28754;47.700;7.924;2023-11-19T04:12:33;9.60;99.90
42615;DHT22;28754;47.700;7.924;2023-11-19T04:15:21;9.70;99.90
42615;DHT22;28754;47.700;7.924;2023-11-19T04:18:08;9.90;99.90
42615;DHT22;28754;47.700;7.924;2023-11-19T04:20:55;9.80;99.90
42615;DHT22;28754;47.700;7.924;2023-11-19T04:23:42;9.90;99.90
42615;DHT22;28754;47.700;7.924;2023-11-19T04:26:29;9.90;99.90
42615;DHT22;28754;47.700;7.924;2023-11-19T04:29:18;9.80;99.90
42615;DHT22;28754;47.700;7.924;2023-11-19T04:32:06;9.80;99.90
42615;DHT22;28754;47.700;7.924;2023-11-19T04:34:53;9.90;99.90
42615;DHT22;28754;47.700;7.924;2023-11-19T04:37:41;9.70;99.90
42615;DHT22;28754;47.700;7.924;2023-11-19T04:40:28;9.80;99.90
42615;DHT22;28754;47.700;7.924;2023-11-19T04:43:14;9.90;99.90
42615;DHT22;28754;47.700;7.924;2023-11-19T04:46:04;9.90;99.90
42615;DHT22;28754;47.700;7.924;2023-11-19T04:48:50;10.00;99.90
42615;DHT22;28754;47.700;7.924;2023-11-19T04:51:41;9.70;99.90
42615;DHT22;28754;47.700;7.924;2023-11-19T04:54:32;9.90;99.90
42615;DHT22;28754;47.700;7.924;2023-11-19T04:57:18;9.90;99.90
42615;DHT22;28754;47.700;7.924;2023-11-19T05:00:05;10.00;99.90
42615;DHT22;28754;47.700;7.924;2023-11-19T05:02:53;9.90;99.90
42615;DHT22;28754;47.700;7.924;2023-11-19T05:05:40;10.20;99.90
42615;DHT22;28754;47.700;7.924;2023-11-19T05:08:27;10.00;99.90
42615;DHT22;28754;47.700;7.924;2023-11-19T05:11:13;10.00;99.90
42615;DHT22;28754;47.700;7.924;2023-11-19T05:14:05;10.10;99.90
42615;DHT22;28754;47.700;7.924;2023-11-19T05:16:52;10.00;99.90
42615;DHT22;28754;47.700;7.924;2023-11-19T05:19:39;9.90;99.90
42615;DHT22;28754;47.700;7.924;2023-11-19T05:22:25;10.20;99.90
42615;DHT22;28754;47.700;7.924;2023-11-19T05:25:12;10.10;99.90
42615;DHT22;28754;47.700;7.924;2023-11-19T05:27:59;10.00;99.90
42615;DHT22;28754;47.700;7.924;2023-11-19T05:30:45;10.00;99.90
42615;DHT22;28754;47.700;7.924;2023-11-19T05:33:32;10.20;99.90
42615;DHT22;28754;47.700;7.924;2023-11-19T05:36:18;9.90;99.90
42615;DHT22;28754;47.700;7.924;2023-11-19T05:39:05;9.80;99.90
42615;DHT22;28754;47.700;7.924;2023-11-19T05:41:52;10.00;99.90
42615;DHT22;28754;47.700;7.924;2023-11-19T05:44:39;10.20;99.90
42615;DHT22;28754;47.700;7.924;2023-11-19T05:47:25;10.20;99.90
42615;DHT22;28754;47.700;7.924;2023-11-19T05:50:12;9.90;99.90
42615;DHT22;28754;47.700;7.924;2023-11-19T05:52:59;10.00;99.90
42615;DHT22;28754;47.700;7.924;2023-11-19T05:55:45;10.50;99.90
42615;DHT22;28754;47.700;7.924;2023-11-19T05:58:36;10.40;99.90
42615;DHT22;28754;47.700;7.924;2023-11-19T06:01:23;10.30;99.90
42615;DHT22;28754;47.700;7.924;2023-11-19T06:04:10;10.40;99.90
42615;DHT22;28754;47.700;7.924;2023-11-19T06:06:57;10.50;99.90
42615;DHT22;28754;47.700;7.924;2023-11-19T06:09:44;10.10;99.90
42615;DHT22;28754;47.700;7.924;2023-11-19T06:12:30;10.50;99.90
42615;DHT22;28754;47.700;7.924;2023-11-19T06:15:18;10.30;99.90
42615;DHT22;28754;47.700;7.924;2023-11-19T06:18:04;10.20;99.90
42615;DHT22;28754;47.700;7.924;2023-11-19T06:20:51;10.10;99.90
42615;DHT22;28754;47.700;7.924;2023-11-19T06:23:38;10.50;99.90
42615;DHT22;28754;47.700;7.924;2023-11-19T06:26:25;10.00;99.90
42615;DHT22;28754;47.700;7.924;2023-11-19T06:29:11;10.10;99.90
42615;DHT22;28754;47.700;7.924;2023-11-19T06:31:58;10.50;99.90
42615;DHT22;28754;47.700;7.924;2023-11-19T06:34:45;10.00;99.90
42615;DHT22;28754;47.700;7.924;2023-11-19T06:37:32;10.00;99.90
42615;DHT22;28754;47.700;7.924;2023-11-19T06:40:19;10.30;99.90
42615;DHT22;28754;47.700;7.924;2023-11-19T06:43:06;10.00;99.90
42615;DHT22;28754;47.700;7.924;2023-11-19T06:45:54;10.00;99.90
42615;DHT22;28754;47.700;7.924;2023-11-19T06:48:41;10.50;99.90
42615;DHT22;28754;47.700;7.924;2023-11-19T06:51:30;10.60;99.90
42615;DHT22;28754;47.700;7.924;2023-11-19T06:54:17;10.00;99.90
42615;DHT22;28754;47.700;7.924;2023-11-19T06:57:03;10.50;99.90
42615;DHT22;28754;47.700;7.924;2023-11-19T06:59:51;10.50;99.90
42615;DHT22;28754;47.700;7.924;2023-11-19T07:02:38;10.60;99.90
42615;DHT22;28754;47.700;7.924;2023-11-19T07:05:27;10.70;99.90
42615;DHT22;28754;47.700;7.924;2023-11-19T07:08:14;10.50;99.90
42615;DHT22;28754;47.700;7.924;2023-11-19T07:11:02;10.30;99.90
42615;DHT22;28754;47.700;7.924;2023-11-19T07:13:50;10.40;99.90
42615;DHT22;28754;47.700;7.924;2023-11-19T07:16:38;10.50;99.90
42615;DHT22;28754;47.700;7.924;2023-11-19T07:19:25;10.30;99.90
42615;DHT22;28754;47.700;7.924;2023-11-19T07:22:12;10.60;99.90
42615;DHT22;28754;47.700;7.924;2023-11-19T07:24:59;10.70;99.90
42615;DHT22;28754;47.700;7.924;2023-11-19T07:27:58;10.50;99.90
42615;DHT22;28754;47.700;7.924;2023-11-19T07:31:03;10.50;99.90
42615;DHT22;28754;47.700;7.924;2023-11-19T07:33:53;10.50;99.90
42615;DHT22;28754;47.700;7.924;2023-11-19T07:36:45;10.20;99.90
42615;DHT22;28754;47.700;7.924;2023-11-19T07:39:32;10.40;99.90
42615;DHT22;28754;47.700;7.924;2023-11-19T07:42:19;10.70;99.90
42615;DHT22;28754;47.700;7.924;2023-11-19T07:45:12;10.50;99.90
42615;DHT22;28754;47.700;7.924;2023-11-19T07:48:04;10.40;99.90
42615;DHT22;28754;47.700;7.924;2023-11-19T07:50:55;10.40;99.90
42615;DHT22;28754;47.700;7.924;2023-11-19T07:53:52;10.70;99.90
42615;DHT22;28754;47.700;7.924;2023-11-19T07:56:42;10.70;99.90
42615;DHT22;28754;47.700;7.924;2023-11-19T07:59:31;10.60;99.90
42615;DHT22;28754;47.700;7.924;2023-11-19T08:02:17;10.10;99.90
42615;DHT22;28754;47.700;7.924;2023-11-19T08:05:05;10.70;99.90
42615;DHT22;28754;47.700;7.924;2023-11-19T08:07:52;10.70;99.90
42615;DHT22;28754;47.700;7.924;2023-11-19T08:10:42;10.70;99.90
42615;DHT22;28754;47.700;7.924;2023-11-19T08:13:31;10.40;99.90
42615;DHT22;28754;47.700;7.924;2023-11-19T08:16:18;10.20;99.90
42615;DHT22;28754;47.700;7.924;2023-11-19T08:19:05;10.80;99.90
42615;DHT22;28754;47.700;7.924;2023-11-19T08:25:16;10.30;99.90
42615;DHT22;28754;47.700;7.924;2023-11-19T08:28:05;10.40;99.90
42615;DHT22;28754;47.700;7.924;2023-11-19T08:30:52;10.90;99.90
42615;DHT22;28754;47.700;7.924;2023-11-19T08:33:39;10.60;99.90
42615;DHT22;28754;47.700;7.924;2023-11-19T08:36:26;10.80;99.90
42615;DHT22;28754;47.700;7.924;2023-11-19T08:39:14;10.30;99.90
42615;DHT22;28754;47.700;7.924;2023-11-19T08:42:01;10.60;99.90
42615;DHT22;28754;47.700;7.924;2023-11-19T08:44:50;10.70;99.90
42615;DHT22;28754;47.700;7.924;2023-11-19T08:47:40;10.70;99.90
42615;DHT22;28754;47.700;7.924;2023-11-19T08:50:27;10.40;99.90
42615;DHT22;28754;47.700;7.924;2023-11-19T08:53:13;10.50;99.90
42615;DHT22;28754;47.700;7.924;2023-11-19T08:56:00;10.50;99.90
42615;DHT22;28754;47.700;7.924;2023-11-19T08:58:49;10.80;99.90
42615;DHT22;28754;47.700;7.924;2023-11-19T09:01:36;10.70;99.90
42615;DHT22;28754;47.700;7.924;2023-11-19T09:04:25;10.70;99.90
42615;DHT22;28754;47.700;7.924;2023-11-19T09:07:12;10.30;99.90
42615;DHT22;28754;47.700;7.924;2023-11-19T09:09:59;10.70;99.90
42615;DHT22;28754;47.700;7.924;2023-11-19T09:12:46;10.40;99.90
42615;DHT22;28754;47.700;7.924;2023-11-19T09:15:32;10.70;99.90
42615;DHT22;28754;47.700;7.924;2023-11-19T09:18:19;10.20;99.90
42615;DHT22;28754;47.700;7.924;2023-11-19T09:21:06;10.60;99.90
42615;DHT22;28754;47.700;7.924;2023-11-19T09:23:53;10.80;99.90
42615;DHT22;28754;47.700;7.924;2023-11-19T09:26:40;10.80;99.90
42615;DHT22;28754;47.700;7.924;2023-11-19T09:29:27;10.80;99.90
42615;DHT22;28754;47.700;7.924;2023-11-19T09:32:18;10.60;99.90
42615;DHT22;28754;47.700;7.924;2023-11-19T09:35:05;10.50;99.90
42615;DHT22;28754;47.700;7.924;2023-11-19T09:37:52;10.90;99.90
42615;DHT22;28754;47.700;7.924;2023-11-19T09:40:39;10.70;99.90
42615;DHT22;28754;47.700;7.924;2023-11-19T09:43:27;10.50;99.90
42615;DHT22;28754;47.700;7.924;2023-11-19T09:46:15;10.50;99.90
42615;DHT22;28754;47.700;7.924;2023-11-19T09:49:08;10.60;99.90
42615;DHT22;28754;47.700;7.924;2023-11-19T09:51:57;11.00;99.90
42615;DHT22;28754;47.700;7.924;2023-11-19T09:54:47;11.00;99.90
42615;DHT22;28754;47.700;7.924;2023-11-19T09:57:35;11.10;99.90
42615;DHT22;28754;47.700;7.924;2023-11-19T10:00:25;11.10;99.90
42615;DHT22;28754;47.700;7.924;2023-11-19T10:03:14;10.70;99.90
42615;DHT22;28754;47.700;7.924;2023-11-19T10:06:02;10.90;99.90
42615;DHT22;28754;47.700;7.924;2023-11-19T10:08:49;10.80;99.90
42615;DHT22;28754;47.700;7.924;2023-11-19T10:11:38;10.50;99.90
42615;DHT22;28754;47.700;7.924;2023-11-19T10:14:31;11.10;99.90
42615;DHT22;28754;47.700;7.924;2023-11-19T10:17:19;10.70;99.90
42615;DHT22;28754;47.700;7.924;2023-11-19T10:20:07;10.90;99.90
42615;DHT22;28754;47.700;7.924;2023-11-19T10:22:59;10.80;99.90
42615;DHT22;28754;47.700;7.924;2023-11-19T10:25:53;10.60;99.90
42615;DHT22;28754;47.700;7.924;2023-11-19T10:28:40;10.70;99.90
42615;DHT22;28754;47.700;7.924;2023-11-19T10:31:30;10.70;99.90
42615;DHT22;28754;47.700;7.924;2023-11-19T10:34:27;10.70;99.90
42615;DHT22;28754;47.700;7.924;2023-11-19T10:37:29;10.70;99.90
42615;DHT22;28754;47.700;7.924;2023-11-19T10:40:21;10.80;99.90
42615;DHT22;28754;47.700;7.924;2023-11-19T10:43:11;10.80;99.90
42615;DHT22;28754;47.700;7.924;2023-11-19T10:46:12;10.70;99.90
42615;DHT22;28754;47.700;7.924;2023-11-19T10:48:59;10.90;99.90
42615;DHT22;28754;47.700;7.924;2023-11-19T10:51:47;11.00;99.90
42615;DHT22;28754;47.700;7.924;2023-11-19T10:54:39;11.00;99.90
42615;DHT22;28754;47.700;7.924;2023-11-19T10:57:49;10.90;99.90
42615;DHT22;28754;47.700;7.924;2023-11-19T11:00:48;10.80;99.90
42615;DHT22;28754;47.700;7.924;2023-11-19T11:03:41;11.00;99.90
42615;DHT22;28754;47.700;7.924;2023-11-19T11:06:36;11.00;99.90
42615;DHT22;28754;47.700;7.924;2023-11-19T11:17:41;10.90;99.90
42615;DHT22;28754;47.700;7.924;2023-11-19T11:20:31;10.80;99.90
42615;DHT22;28754;47.700;7.924;2023-11-19T11:27:00;10.70;99.90
42615;DHT22;28754;47.700;7.924;2023-11-19T11:34:05;10.80;99.90
42615;DHT22;28754;47.700;7.924;2023-11-19T11:37:29;10.80;99.90
42615;DHT22;28754;47.700;7.924;2023-11-19T11:40:22;10.80;99.90
42615;DHT22;28754;47.700;7.924;2023-11-19T11:46:54;10.70;99.90
42615;DHT22;28754;47.700;7.924;2023-11-19T11:49:43;10.80;99.90
42615;DHT22;28754;47.700;7.924;2023-11-19T11:52:30;10.70;99.90
42615;DHT22;28754;47.700;7.924;2023-11-19T11:55:36;10.70;99.90
42615;DHT22;28754;47.700;7.924;2023-11-19T11:58:31;10.70;99.90
42615;DHT22;28754;47.700;7.924;2023-11-19T12:01:19;10.70;99.90
42615;DHT22;28754;47.700;7.924;2023-11-19T12:04:07;10.70;99.90
42615;DHT22;28754;47.700;7.924;2023-11-19T12:07:21;10.80;99.90
42615;DHT22;28754;47.700;7.924;2023-11-19T12:10:24;10.80;99.90
42615;DHT22;28754;47.700;7.924;2023-11-19T12:13:11;10.80;99.90
42615;DHT22;28754;47.700;7.924;2023-11-19T12:18:47;10.80;99.90
42615;DHT22;28754;47.700;7.924;2023-11-19T12:21:35;10.80;99.90
42615;DHT22;28754;47.700;7.924;2023-11-19T12:51:53;10.60;99.90
42615;DHT22;28754;47.700;7.924;2023-11-19T12:54:52;10.70;99.90
42615;DHT22;28754;47.700;7.924;2023-11-19T12:57:46;10.50;99.90
42615;DHT22;28754;47.700;7.924;2023-11-19T13:03:29;10.40;99.90
42615;DHT22;28754;47.700;7.924;2023-11-19T13:06:17;10.60;99.90
42615;DHT22;28754;47.700;7.924;2023-11-19T13:09:07;10.60;99.90
42615;DHT22;28754;47.700;7.924;2023-11-19T13:11:59;10.50;99.90
42615;DHT22;28754;47.700;7.924;2023-11-19T13:14:49;10.60;99.90
42615;DHT22;28754;47.700;7.924;2023-11-19T13:17:37;10.60;99.90
42615;DHT22;28754;47.700;7.924;2023-11-19T13:20:24;10.60;99.90
42615;DHT22;28754;47.700;7.924;2023-11-19T13:23:11;10.60;99.90
42615;DHT22;28754;47.700;7.924;2023-11-19T13:25:59;10.60;99.90
42615;DHT22;28754;47.700;7.924;2023-11-19T13:28:46;10.60;99.90
42615;DHT22;28754;47.700;7.924;2023-11-19T13:31:32;10.70;99.90
42615;DHT22;28754;47.700;7.924;2023-11-19T13:34:19;10.70;99.90
42615;DHT22;28754;47.700;7.924;2023-11-19T13:37:06;10.50;99.90
42615;DHT22;28754;47.700;7.924;2023-11-19T13:39:53;10.50;99.90
42615;DHT22;28754;47.700;7.924;2023-11-19T13:42:43;10.50;99.90
42615;DHT22;28754;47.700;7.924;2023-11-19T13:45:30;10.40;99.90
42615;DHT22;28754;47.700;7.924;2023-11-19T13:48:17;10.40;99.90
42615;DHT22;28754;47.700;7.924;2023-11-19T13:51:04;10.40;99.90
42615;DHT22;28754;47.700;7.924;2023-11-19T13:53:51;10.30;99.90
42615;DHT22;28754;47.700;7.924;2023-11-19T13:56:38;10.20;99.90
42615;DHT22;28754;47.700;7.924;2023-11-19T13:59:25;10.30;99.90
42615;DHT22;28754;47.700;7.924;2023-11-19T14:02:11;10.30;99.90
42615;DHT22;28754;47.700;7.924;2023-11-19T14:04:58;10.30;99.90
42615;DHT22;28754;47.700;7.924;2023-11-19T14:07:45;10.30;99.90
42615;DHT22;28754;47.700;7.924;2023-11-19T14:10:35;10.30;99.90
42615;DHT22;28754;47.700;7.924;2023-11-19T14:13:23;10.30;99.90
42615;DHT22;28754;47.700;7.924;2023-11-19T14:16:10;10.30;99.90
42615;DHT22;28754;47.700;7.924;2023-11-19T14:18:58;10.20;99.90
42615;DHT22;28754;47.700;7.924;2023-11-19T14:21:45;10.30;99.90
42615;DHT22;28754;47.700;7.924;2023-11-19T14:24:34;10.20;99.90
42615;DHT22;28754;47.700;7.924;2023-11-19T14:27:21;10.20;99.90
42615;DHT22;28754;47.700;7.924;2023-11-19T14:30:10;10.20;99.90
42615;DHT22;28754;47.700;7.924;2023-11-19T14:41:28;10.30;99.90
42615;DHT22;28754;47.700;7.924;2023-11-19T14:44:17;10.40;99.90
42615;DHT22;28754;47.700;7.924;2023-11-19T14:47:08;10.30;99.90
42615;DHT22;28754;47.700;7.924;2023-11-19T14:50:00;10.30;99.90
42615;DHT22;28754;47.700;7.924;2023-11-19T14:53:10;10.30;99.90
42615;DHT22;28754;47.700;7.924;2023-11-19T14:55:57;10.20;99.90
42615;DHT22;28754;47.700;7.924;2023-11-19T14:58:44;10.10;99.90
42615;DHT22;28754;47.700;7.924;2023-11-19T15:01:31;10.10;99.90
42615;DHT22;28754;47.700;7.924;2023-11-19T15:04:26;10.10;99.90
42615;DHT22;28754;47.700;7.924;2023-11-19T15:07:13;10.10;99.90
42615;DHT22;28754;47.700;7.924;2023-11-19T15:10:00;10.10;99.90
42615;DHT22;28754;47.700;7.924;2023-11-19T15:12:47;10.00;99.90
42615;DHT22;28754;47.700;7.924;2023-11-19T15:15:36;10.10;99.90
42615;DHT22;28754;47.700;7.924;2023-11-19T15:18:25;10.10;99.90
42615;DHT22;28754;47.700;7.924;2023-11-19T15:21:14;10.10;99.90
42615;DHT22;28754;47.700;7.924;2023-11-19T15:24:19;10.10;99.90
42615;DHT22;28754;47.700;7.924;2023-11-19T15:27:06;10.00;99.90
42615;DHT22;28754;47.700;7.924;2023-11-19T15:29:53;10.00;99.90
42615;DHT22;28754;47.700;7.924;2023-11-19T15:32:43;10.00;99.90
42615;DHT22;28754;47.700;7.924;2023-11-19T15:35:29;10.00;99.90
42615;DHT22;28754;47.700;7.924;2023-11-19T15:38:19;10.00;99.90
42615;DHT22;28754;47.700;7.924;2023-11-19T15:41:05;10.00;99.90
42615;DHT22;28754;47.700;7.924;2023-11-19T15:43:53;10.00;99.90
42615;DHT22;28754;47.700;7.924;2023-11-19T15:46:41;10.00;99.90
42615;DHT22;28754;47.700;7.924;2023-11-19T15:49:28;9.90;99.90
42615;DHT22;28754;47.700;7.924;2023-11-19T15:52:15;9.90;99.90
42615;DHT22;28754;47.700;7.924;2023-11-19T15:55:02;9.90;99.90
42615;DHT22;28754;47.700;7.924;2023-11-19T15:57:49;9.90;99.90
42615;DHT22;28754;47.700;7.924;2023-11-19T16:00:41;9.90;99.90
42615;DHT22;28754;47.700;7.924;2023-11-19T16:03:32;9.90;99.90
42615;DHT22;28754;47.700;7.924;2023-11-19T16:06:22;9.90;99.90
42615;DHT22;28754;47.700;7.924;2023-11-19T16:09:14;10.00;99.90
42615;DHT22;28754;47.700;7.924;2023-11-19T16:12:08;10.00;99.90
42615;DHT22;28754;47.700;7.924;2023-11-19T16:14:59;10.00;99.90
42615;DHT22;28754;47.700;7.924;2023-11-19T16:18:00;10.00;99.90
42615;DHT22;28754;47.700;7.924;2023-11-19T16:20:49;10.00;99.90
42615;DHT22;28754;47.700;7.924;2023-11-19T16:23:41;10.00;99.90
42615;DHT22;28754;47.700;7.924;2023-11-19T16:26:34;10.00;99.90
42615;DHT22;28754;47.700;7.924;2023-11-19T16:29:24;10.00;99.90
42615;DHT22;28754;47.700;7.924;2023-11-19T16:34:46;10.00;99.90
42615;DHT22;28754;47.700;7.924;2023-11-19T16:37:34;10.10;99.90
42615;DHT22;28754;47.700;7.924;2023-11-19T16:40:21;10.10;99.90
42615;DHT22;28754;47.700;7.924;2023-11-19T16:43:09;10.10;99.90
42615;DHT22;28754;47.700;7.924;2023-11-19T16:45:56;10.10;99.90
42615;DHT22;28754;47.700;7.924;2023-11-19T16:48:47;10.10;99.90
42615;DHT22;28754;47.700;7.924;2023-11-19T16:51:37;10.10;99.90
42615;DHT22;28754;47.700;7.924;2023-11-19T16:54:23;9.90;99.90
42615;DHT22;28754;47.700;7.924;2023-11-19T16:57:10;9.90;99.90
42615;DHT22;28754;47.700;7.924;2023-11-19T17:00:00;9.90;99.90
42615;DHT22;28754;47.700;7.924;2023-11-19T17:02:46;10.00;99.90
42615;DHT22;28754;47.700;7.924;2023-11-19T17:05:34;9.90;99.90
42615;DHT22;28754;47.700;7.924;2023-11-19T17:08:23;9.90;99.90
42615;DHT22;28754;47.700;7.924;2023-11-19T17:11:11;9.90;99.90
42615;DHT22;28754;47.700;7.924;2023-11-19T17:14:04;10.00;99.90
42615;DHT22;28754;47.700;7.924;2023-11-19T17:16:51;9.90;99.90
42615;DHT22;28754;47.700;7.924;2023-11-19T17:19:38;9.90;99.90
42615;DHT22;28754;47.700;7.924;2023-11-19T17:22:27;9.90;99.90
42615;DHT22;28754;47.700;7.924;2023-11-19T17:25:14;9.90;99.90
42615;DHT22;28754;47.700;7.924;2023-11-19T17:28:03;9.90;99.90
42615;DHT22;28754;47.700;7.924;2023-11-19T17:30:53;9.90;99.90
42615;DHT22;28754;47.700;7.924;2023-11-19T17:33:40;9.90;99.90
42615;DHT22;28754;47.700;7.924;2023-11-19T17:36:27;9.90;99.90
42615;DHT22;28754;47.700;7.924;2023-11-19T17:39:19;9.90;99.90
42615;DHT22;28754;47.700;7.924;2023-11-19T17:42:06;9.90;99.90
42615;DHT22;28754;47.700;7.924;2023-11-19T17:44:53;9.90;99.90
42615;DHT22;28754;47.700;7.924;2023-11-19T17:47:42;9.80;99.90
42615;DHT22;28754;47.700;7.924;2023-11-19T17:50:29;9.80;99.90
42615;DHT22;28754;47.700;7.924;2023-11-19T17:53:16;9.90;99.90
42615;DHT22;28754;47.700;7.924;2023-11-19T17:56:03;9.80;99.90
42615;DHT22;28754;47.700;7.924;2023-11-19T17:58:51;9.90;99.90
42615;DHT22;28754;47.700;7.924;2023-11-19T18:01:38;9.80;99.90
42615;DHT22;28754;47.700;7.924;2023-11-19T18:04:26;9.80;99.90
42615;DHT22;28754;47.700;7.924;2023-11-19T18:07:16;9.80;99.90
42615;DHT22;28754;47.700;7.924;2023-11-19T18:10:14;9.80;99.90
42615;DHT22;28754;47.700;7.924;2023-11-19T18:13:02;9.80;99.90
42615;DHT22;28754;47.700;7.924;2023-11-19T18:15:54;9.80;99.90
42615;DHT22;28754;47.700;7.924;2023-11-19T18:18:42;9.80;99.90
42615;DHT22;28754;47.700;7.924;2023-11-19T18:21:37;9.90;99.90
42615;DHT22;28754;47.700;7.924;2023-11-19T18:24:27;9.80;99.90
42615;DHT22;28754;47.700;7.924;2023-11-19T18:27:21;9.80;99.90
42615;DHT22;28754;47.700;7.924;2023-11-19T18:30:12;9.80;99.90
42615;DHT22;28754;47.700;7.924;2023-11-19T18:33:07;9.80;99.90
42615;DHT22;28754;47.700;7.924;2023-11-19T18:36:02;9.80;99.90
42615;DHT22;28754;47.700;7.924;2023-11-19T18:38:52;9.80;99.90
42615;DHT22;28754;47.700;7.924;2023-11-19T18:41:39;9.80;99.90
42615;DHT22;28754;47.700;7.924;2023-11-19T18:44:28;9.80;99.90
42615;DHT22;28754;47.700;7.924;2023-11-19T18:47:21;9.70;99.90
42615;DHT22;28754;47.700;7.924;2023-11-19T18:50:11;9.80;99.90
42615;DHT22;28754;47.700;7.924;2023-11-19T18:53:00;9.80;99.90
42615;DHT22;28754;47.700;7.924;2023-11-19T18:55:49;9.70;99.90
42615;DHT22;28754;47.700;7.924;2023-11-19T18:59:06;9.70;99.90
42615;DHT22;28754;47.700;7.924;2023-11-19T19:01:58;9.70;99.90